createdAt,value
2019-05-23T00:01:24.827Z,4.10
2019-05-23T00:03:54.971Z,4.10
2019-05-23T00:06:25.528Z,4.10
2019-05-23T00:08:55.355Z,4.10
2019-05-23T00:11:26.079Z,4.20
2019-05-23T00:13:58.384Z,4.20
2019-05-23T00:16:28.668Z,4.20
2019-05-23T00:19:00.541Z,4.10
2019-05-23T00:21:30.611Z,4.10
2019-05-23T00:24:00.108Z,4.10
2019-05-23T00:26:29.934Z,4.00
2019-05-23T00:29:09.479Z,4.00
2019-05-23T00:31:37.121Z,4.00
2019-05-23T00:34:06.790Z,4.10
2019-05-23T00:36:35.605Z,4.10
2019-05-23T00:39:08.680Z,4.10
2019-05-23T00:41:39.547Z,4.20
2019-05-23T00:44:08.436Z,4.20
2019-05-23T00:46:38.158Z,4.10
2019-05-23T00:49:08.280Z,4.10
2019-05-23T00:51:36.932Z,4.10
2019-05-23T00:54:06.285Z,4.10
2019-05-23T00:56:35.933Z,4.10
2019-05-23T00:59:05.960Z,4.10
2019-05-23T01:01:34.936Z,4.10
2019-05-23T01:04:04.023Z,4.10
2019-05-23T01:06:34.826Z,4.10
2019-05-23T01:09:05.158Z,4.10
2019-05-23T01:11:34.318Z,4.10
2019-05-23T01:14:03.466Z,4.10
2019-05-23T01:16:32.803Z,4.10
2019-05-23T01:19:01.803Z,4.20
2019-05-23T01:21:41.097Z,4.20
2019-05-23T01:24:17.177Z,4.20
2019-05-23T01:26:45.888Z,4.20
2019-05-23T01:29:14.682Z,4.20
2019-05-23T01:31:45.027Z,4.20
2019-05-23T01:34:15.311Z,4.20
2019-05-23T01:36:45.868Z,4.20
2019-05-23T01:39:15.266Z,4.10
2019-05-23T01:41:44.010Z,4.10
2019-05-23T01:44:12.972Z,4.00
2019-05-23T01:46:42.784Z,4.00
2019-05-23T01:49:12.132Z,4.00
2019-05-23T01:51:40.553Z,3.90
2019-05-23T01:54:09.707Z,4.00
2019-05-23T01:56:39.359Z,3.90
2019-05-23T01:59:08.286Z,3.90
2019-05-23T02:01:39.024Z,3.90
2019-05-23T02:04:08.280Z,3.80
2019-05-23T02:06:36.990Z,3.80
2019-05-23T02:09:08.627Z,3.80
2019-05-23T02:11:38.025Z,3.70
2019-05-23T02:14:07.951Z,3.60
2019-05-23T02:16:37.973Z,3.50
2019-05-23T02:19:07.622Z,3.50
2019-05-23T02:21:36.945Z,3.40
2019-05-23T02:24:07.129Z,3.50
2019-05-23T02:26:37.152Z,3.50
2019-05-23T02:29:06.248Z,3.50
2019-05-23T02:31:36.204Z,3.50
2019-05-23T02:34:05.364Z,3.50
2019-05-23T02:36:35.204Z,3.50
2019-05-23T02:39:24.962Z,3.40
2019-05-23T02:41:58.643Z,3.30
2019-05-23T02:44:28.849Z,3.40
2019-05-23T02:47:03.579Z,3.40
2019-05-23T02:49:33.922Z,3.40
2019-05-23T02:52:05.783Z,3.40
2019-05-23T02:54:37.459Z,3.50
2019-05-23T02:57:07.315Z,3.40
2019-05-23T02:59:48.622Z,3.30
2019-05-23T03:02:30.659Z,3.30
2019-05-23T03:05:00.024Z,3.30
2019-05-23T03:07:33.122Z,3.30
2019-05-23T03:10:02.485Z,3.20
2019-05-23T03:12:31.475Z,3.10
2019-05-23T03:15:00.995Z,3.20
2019-05-23T03:17:33.099Z,3.10
2019-05-23T03:20:05.902Z,3.10
2019-05-23T03:22:44.345Z,3.10
2019-05-23T03:25:21.816Z,3.10
2019-05-23T03:27:50.722Z,3.00
2019-05-23T03:30:24.386Z,3.00
2019-05-23T03:32:55.393Z,3.00
2019-05-23T03:35:34.672Z,2.90
2019-05-23T03:38:03.590Z,2.90
2019-05-23T03:40:35.111Z,2.80
2019-05-23T03:43:05.212Z,2.80
2019-05-23T03:45:39.523Z,2.70
2019-05-23T03:48:07.128Z,2.80
2019-05-23T03:50:35.611Z,2.80
2019-05-23T03:53:06.334Z,2.80
2019-05-23T03:55:37.232Z,2.80
2019-05-23T03:58:06.009Z,2.80
2019-05-23T04:00:36.907Z,2.80
2019-05-23T04:03:05.640Z,2.90
2019-05-23T04:05:34.882Z,2.90
2019-05-23T04:08:04.645Z,3.00
2019-05-23T04:10:33.431Z,2.90
2019-05-23T04:13:02.242Z,2.90
2019-05-23T04:15:30.755Z,2.90
2019-05-23T04:17:59.176Z,3.00
2019-05-23T04:20:27.971Z,3.00
2019-05-23T04:22:56.637Z,3.00
2019-05-23T04:25:25.249Z,3.10
2019-05-23T04:27:55.216Z,3.20
2019-05-23T04:30:24.073Z,3.20
2019-05-23T04:32:52.668Z,3.00
2019-05-23T04:35:21.206Z,3.00
2019-05-23T04:37:50.511Z,3.10
2019-05-23T04:40:18.970Z,3.20
2019-05-23T04:42:47.595Z,3.20
2019-05-23T04:45:16.460Z,3.20
2019-05-23T04:47:45.548Z,3.20
2019-05-23T04:50:16.385Z,3.30
2019-05-23T04:52:45.092Z,3.40
2019-05-23T04:55:15.296Z,3.40
2019-05-23T04:57:44.152Z,3.40
2019-05-23T05:00:16.064Z,3.40
2019-05-23T05:02:47.193Z,3.50
2019-05-23T05:05:16.618Z,3.50
2019-05-23T05:07:45.311Z,3.60
2019-05-23T05:10:17.159Z,3.70
2019-05-23T05:12:45.702Z,3.80
2019-05-23T05:15:14.801Z,3.90
2019-05-23T05:17:43.586Z,4.00
2019-05-23T05:20:12.858Z,4.10
2019-05-23T05:22:41.982Z,4.20
2019-05-23T05:25:10.664Z,4.30
2019-05-23T05:27:40.619Z,4.40
2019-05-23T05:30:10.967Z,4.50
2019-05-23T05:32:44.589Z,4.60
2019-05-23T05:35:11.646Z,4.70
2019-05-23T05:37:40.204Z,4.90
2019-05-23T05:40:09.594Z,5.10
2019-05-23T05:42:39.184Z,5.20
2019-05-23T05:45:09.208Z,5.30
2019-05-23T05:47:39.783Z,5.50
2019-05-23T05:50:13.871Z,5.70
2019-05-23T05:52:42.842Z,5.80
2019-05-23T05:55:12.075Z,6.00
2019-05-23T05:57:40.739Z,6.30
2019-05-23T06:00:13.497Z,6.50
2019-05-23T06:02:42.728Z,6.80
2019-05-23T06:05:13.018Z,7.20
2019-05-23T06:07:42.183Z,7.40
2019-05-23T06:10:12.806Z,7.70
2019-05-23T06:12:41.548Z,7.90
2019-05-23T06:15:10.811Z,8.20
2019-05-23T06:17:39.699Z,8.60
2019-05-23T06:20:08.973Z,8.80
2019-05-23T06:22:40.698Z,8.90
2019-05-23T06:25:11.344Z,9.20
2019-05-23T06:27:40.708Z,9.60
2019-05-23T06:30:12.549Z,9.70
2019-05-23T06:32:41.216Z,10.10
2019-05-23T06:35:10.160Z,10.20
2019-05-23T06:37:39.763Z,10.90
2019-05-23T06:40:11.674Z,11.10
2019-05-23T06:42:40.137Z,11.30
2019-05-23T06:45:11.663Z,11.90
2019-05-23T06:47:40.555Z,12.30
2019-05-23T06:50:15.913Z,12.60
2019-05-23T06:52:46.549Z,12.60
2019-05-23T06:55:15.053Z,12.40
2019-05-23T06:57:45.388Z,13.00
2019-05-23T07:00:17.090Z,13.20
2019-05-23T07:02:47.707Z,13.60
2019-05-23T07:05:18.210Z,13.90
2019-05-23T07:07:47.488Z,14.10
2019-05-23T07:10:16.561Z,14.50
2019-05-23T07:12:45.401Z,14.80
2019-05-23T07:15:13.839Z,15.00
2019-05-23T07:17:42.715Z,15.30
2019-05-23T07:20:12.163Z,15.60
2019-05-23T07:22:41.119Z,15.60
2019-05-23T07:25:10.558Z,15.60
2019-05-23T07:27:39.648Z,15.90
2019-05-23T07:30:23.470Z,15.90
2019-05-23T07:32:53.438Z,16.00
2019-05-23T07:35:23.092Z,16.30
2019-05-23T07:37:51.508Z,16.60
2019-05-23T07:40:21.465Z,16.50
2019-05-23T07:42:50.208Z,16.60
2019-05-23T07:45:26.459Z,16.50
2019-05-23T07:47:55.143Z,16.40
2019-05-23T07:50:25.545Z,16.40
2019-05-23T07:52:56.672Z,15.90
2019-05-23T07:55:26.747Z,16.30
2019-05-23T07:57:56.900Z,16.60
2019-05-23T08:00:33.054Z,16.90
2019-05-23T08:03:05.749Z,16.60
2019-05-23T08:05:35.032Z,16.90
2019-05-23T08:08:04.762Z,17.60
2019-05-23T08:10:34.528Z,17.40
2019-05-23T08:13:03.348Z,17.90
2019-05-23T08:15:33.332Z,17.80
2019-05-23T08:18:01.823Z,18.10
2019-05-23T08:20:30.266Z,18.00
2019-05-23T08:22:58.955Z,18.50
2019-05-23T08:25:27.536Z,18.70
2019-05-23T08:27:55.979Z,18.60
2019-05-23T08:30:24.583Z,18.40
2019-05-23T08:32:53.152Z,18.70
2019-05-23T08:35:22.303Z,19.10
2019-05-23T08:37:50.890Z,19.20
2019-05-23T08:40:22.341Z,18.90
2019-05-23T08:42:51.848Z,18.60
2019-05-23T08:45:21.315Z,18.90
2019-05-23T08:47:49.755Z,18.70
2019-05-23T08:50:21.099Z,18.30
2019-05-23T08:52:49.613Z,18.90
2019-05-23T08:55:23.914Z,18.90
2019-05-23T08:57:54.682Z,19.20
2019-05-23T09:00:26.101Z,19.20
2019-05-23T09:02:58.529Z,19.30
2019-05-23T09:05:27.535Z,19.60
2019-05-23T09:07:55.982Z,19.50
2019-05-23T09:10:25.607Z,19.80
2019-05-23T09:12:55.697Z,19.80
2019-05-23T09:15:24.356Z,19.90
2019-05-23T09:17:54.290Z,20.20
2019-05-23T09:20:24.742Z,19.90
2019-05-23T09:22:54.736Z,20.10
2019-05-23T09:25:23.402Z,19.40
2019-05-23T09:27:53.402Z,19.50
2019-05-23T09:30:25.004Z,19.50
2019-05-23T09:32:53.490Z,19.60
2019-05-23T09:35:22.477Z,19.70
2019-05-23T09:37:51.225Z,19.60
2019-05-23T09:40:20.500Z,20.00
2019-05-23T09:42:49.108Z,20.30
2019-05-23T09:45:18.192Z,20.50
2019-05-23T09:47:51.103Z,20.50
2019-05-23T09:50:19.431Z,20.60
2019-05-23T09:52:49.481Z,20.90
2019-05-23T09:55:18.049Z,21.20
2019-05-23T09:57:46.467Z,21.20
2019-05-23T10:00:19.574Z,20.80
2019-05-23T10:02:48.082Z,20.40
2019-05-23T10:05:18.226Z,20.30
2019-05-23T10:07:46.729Z,20.20
2019-05-23T10:10:17.179Z,20.60
2019-05-23T10:12:45.761Z,21.10
2019-05-23T10:15:16.793Z,21.30
2019-05-23T10:17:45.216Z,20.50
2019-05-23T10:20:14.878Z,20.50
2019-05-23T10:22:44.834Z,20.20
2019-05-23T10:25:13.543Z,20.10
2019-05-23T10:27:41.975Z,19.70
2019-05-23T10:30:12.493Z,19.80
2019-05-23T10:32:40.983Z,20.30
2019-05-23T10:35:09.842Z,20.50
2019-05-23T10:37:38.403Z,20.70
2019-05-23T10:40:07.605Z,21.00
2019-05-23T10:42:38.808Z,21.20
2019-05-23T10:45:08.782Z,21.10
2019-05-23T10:47:37.853Z,21.10
2019-05-23T10:50:09.446Z,21.00
2019-05-23T10:52:38.023Z,21.50
2019-05-23T10:55:08.074Z,21.80
2019-05-23T10:57:36.833Z,22.00
2019-05-23T11:00:06.622Z,21.70
2019-05-23T11:02:36.293Z,21.60
2019-05-23T11:05:12.802Z,21.20
2019-05-23T11:07:38.285Z,21.10
2019-05-23T11:10:07.764Z,21.00
2019-05-23T11:12:36.195Z,21.00
2019-05-23T11:15:06.626Z,21.40
2019-05-23T11:17:36.103Z,21.90
2019-05-23T11:20:10.736Z,21.70
2019-05-23T11:22:39.368Z,21.00
2019-05-23T11:25:10.532Z,20.80
2019-05-23T11:27:39.019Z,21.30
2019-05-23T11:30:11.223Z,21.80
2019-05-23T11:32:39.813Z,21.60
2019-05-23T11:35:08.682Z,21.60
2019-05-23T11:37:37.196Z,21.90
2019-05-23T11:40:07.832Z,21.90
2019-05-23T11:42:38.504Z,21.40
2019-05-23T11:45:07.568Z,21.40
2019-05-23T11:47:36.384Z,21.20
2019-05-23T11:50:07.628Z,21.90
2019-05-23T11:52:37.629Z,22.20
2019-05-23T11:55:07.540Z,22.30
2019-05-23T11:57:38.169Z,22.10
2019-05-23T12:00:10.476Z,21.70
2019-05-23T12:02:43.694Z,21.20
2019-05-23T12:05:14.748Z,21.50
2019-05-23T12:07:43.332Z,21.60
2019-05-23T12:10:13.424Z,21.20
2019-05-23T12:12:42.020Z,21.60
2019-05-23T12:15:13.728Z,21.40
2019-05-23T12:17:44.020Z,21.70
2019-05-23T12:20:13.454Z,22.00
2019-05-23T12:22:42.501Z,22.50
2019-05-23T12:25:21.750Z,22.90
2019-05-23T12:27:42.066Z,22.10
2019-05-23T12:30:13.339Z,22.00
2019-05-23T12:32:42.015Z,21.80
2019-05-23T12:35:12.123Z,22.40
2019-05-23T12:37:40.891Z,22.60
2019-05-23T12:40:11.141Z,22.50
2019-05-23T12:42:41.231Z,22.30
2019-05-23T12:45:11.949Z,23.00
2019-05-23T12:47:57.217Z,23.20
2019-05-23T12:50:31.991Z,23.10
2019-05-23T12:53:00.500Z,22.80
2019-05-23T12:55:29.014Z,22.90
2019-05-23T12:57:59.182Z,22.80
2019-05-23T13:00:29.443Z,22.50
2019-05-23T13:02:58.076Z,22.40
2019-05-23T13:05:26.975Z,22.50
2019-05-23T13:07:56.856Z,22.70
2019-05-23T13:10:26.675Z,22.30
2019-05-23T13:12:55.106Z,22.30
2019-05-23T13:15:24.619Z,22.10
2019-05-23T13:17:53.038Z,21.90
2019-05-23T13:20:21.732Z,22.30
2019-05-23T13:22:50.277Z,22.60
2019-05-23T13:25:18.890Z,22.40
2019-05-23T13:27:47.528Z,22.60
2019-05-23T13:30:16.515Z,22.50
2019-05-23T13:32:44.986Z,22.00
2019-05-23T13:35:15.075Z,21.70
2019-05-23T13:37:53.252Z,22.20
2019-05-23T13:40:14.604Z,22.50
2019-05-23T13:42:43.507Z,22.80
2019-05-23T13:45:12.525Z,23.20
2019-05-23T13:47:41.035Z,23.20
2019-05-23T13:50:10.159Z,22.40
2019-05-23T13:52:39.448Z,22.80
2019-05-23T13:55:09.756Z,23.00
2019-05-23T13:57:38.175Z,23.10
2019-05-23T14:00:07.584Z,22.30
2019-05-23T14:02:36.386Z,22.20
2019-05-23T14:05:07.522Z,22.20
2019-05-23T14:07:36.763Z,22.80
2019-05-23T14:10:09.944Z,22.80
2019-05-23T14:12:38.978Z,22.80
2019-05-23T14:15:10.572Z,22.50
2019-05-23T14:17:40.858Z,22.10
2019-05-23T14:20:10.028Z,22.50
2019-05-23T14:22:40.292Z,22.00
2019-05-23T14:25:09.056Z,21.60
2019-05-23T14:27:51.033Z,21.40
2019-05-23T14:30:30.330Z,21.40
2019-05-23T14:33:01.227Z,21.40
2019-05-23T14:35:31.628Z,21.60
2019-05-23T14:38:04.796Z,21.80
2019-05-23T14:40:33.346Z,21.80
2019-05-23T14:43:15.550Z,21.80
2019-05-23T14:45:55.057Z,21.70
2019-05-23T14:48:41.441Z,22.00
2019-05-23T14:51:24.205Z,21.70
2019-05-23T14:54:04.312Z,21.60
2019-05-23T14:56:34.614Z,21.00
2019-05-23T14:59:03.402Z,20.80
2019-05-23T15:01:33.465Z,20.80
2019-05-23T15:04:02.476Z,20.70
2019-05-23T15:06:31.396Z,20.90
2019-05-23T15:08:59.925Z,20.70
2019-05-23T15:11:28.773Z,20.60
2019-05-23T15:13:57.283Z,20.40
2019-05-23T15:16:25.995Z,20.30
2019-05-23T15:18:54.527Z,20.20
2019-05-23T15:21:23.337Z,19.90
2019-05-23T15:23:52.043Z,19.90
2019-05-23T15:26:23.872Z,19.70
2019-05-23T15:28:52.992Z,19.70
2019-05-23T15:31:21.481Z,19.60
2019-05-23T15:33:50.228Z,19.80
2019-05-23T15:36:19.144Z,20.00
2019-05-23T15:38:47.765Z,19.70
2019-05-23T15:41:16.367Z,19.70
2019-05-23T15:43:44.880Z,19.40
2019-05-23T15:46:13.382Z,19.70
2019-05-23T15:48:41.898Z,19.60
2019-05-23T15:51:12.116Z,19.60
2019-05-23T15:53:42.250Z,19.50
2019-05-23T15:56:28.053Z,19.50
2019-05-23T15:58:56.570Z,19.50
2019-05-23T16:01:35.893Z,19.00
2019-05-23T16:04:06.651Z,18.90
2019-05-23T16:06:36.628Z,19.10
2019-05-23T16:09:25.649Z,19.10
2019-05-23T16:11:39.958Z,19.00
2019-05-23T16:14:08.733Z,18.90
2019-05-23T16:16:37.403Z,18.80
2019-05-23T16:19:06.282Z,18.70
2019-05-23T16:21:34.896Z,18.60
2019-05-23T16:24:04.547Z,18.50
2019-05-23T16:26:34.641Z,18.60
2019-05-23T16:29:03.858Z,18.60
2019-05-23T16:31:32.375Z,18.50
2019-05-23T16:34:00.808Z,18.40
2019-05-23T16:36:30.806Z,18.40
2019-05-23T16:38:59.306Z,18.40
2019-05-23T16:41:27.875Z,18.30
2019-05-23T16:43:56.290Z,18.30
2019-05-23T16:46:26.391Z,18.20
2019-05-23T16:48:55.023Z,18.20
2019-05-23T16:51:23.786Z,18.20
2019-05-23T16:53:52.646Z,18.10
2019-05-23T16:56:25.307Z,18.10
2019-05-23T16:59:02.956Z,18.00
2019-05-23T17:01:31.846Z,17.90
2019-05-23T17:04:11.214Z,17.90
2019-05-23T17:06:41.352Z,17.80
2019-05-23T17:09:17.216Z,17.80
2019-05-23T17:11:47.616Z,17.80
2019-05-23T17:14:20.489Z,17.60
2019-05-23T17:17:09.129Z,17.60
2019-05-23T17:19:42.433Z,17.60
2019-05-23T17:22:30.938Z,17.50
2019-05-23T17:25:09.664Z,17.50
2019-05-23T17:27:52.555Z,17.40
2019-05-23T17:30:22.646Z,17.40
2019-05-23T17:32:52.953Z,17.20
2019-05-23T17:35:21.516Z,17.20
2019-05-23T17:37:50.063Z,17.20
2019-05-23T17:40:25.098Z,17.10
2019-05-23T17:42:49.167Z,17.10
2019-05-23T17:45:18.129Z,17.00
2019-05-23T17:47:47.056Z,17.00
2019-05-23T17:50:15.577Z,16.90
2019-05-23T17:52:44.166Z,16.90
2019-05-23T17:55:13.065Z,16.70
2019-05-23T17:57:43.122Z,16.60
2019-05-23T18:00:14.407Z,16.50
2019-05-23T18:02:42.913Z,16.50
2019-05-23T18:05:12.400Z,16.40
2019-05-23T18:07:42.533Z,16.30
2019-05-23T18:10:12.195Z,16.20
2019-05-23T18:12:40.631Z,16.10
2019-05-23T18:15:11.575Z,16.00
2019-05-23T18:17:40.142Z,15.90
2019-05-23T18:20:09.494Z,15.70
2019-05-23T18:22:38.543Z,15.70
2019-05-23T18:25:09.076Z,15.60
2019-05-23T18:27:38.223Z,15.50
2019-05-23T18:30:10.220Z,15.30
2019-05-23T18:32:39.418Z,15.20
2019-05-23T18:35:09.963Z,15.10
2019-05-23T18:37:38.827Z,14.90
2019-05-23T18:40:08.218Z,14.70
2019-05-23T18:42:36.923Z,14.60
2019-05-23T18:45:09.332Z,14.40
2019-05-23T18:47:45.352Z,14.30
2019-05-23T18:50:16.481Z,14.10
2019-05-23T18:52:45.180Z,14.10
2019-05-23T18:55:14.989Z,13.90
2019-05-23T18:57:43.607Z,13.80
2019-05-23T19:00:13.797Z,13.70
2019-05-23T19:02:42.467Z,13.60
2019-05-23T19:05:11.507Z,13.40
2019-05-23T19:07:41.081Z,13.30
2019-05-23T19:10:11.415Z,13.20
2019-05-23T19:12:41.744Z,13.10
2019-05-23T19:15:11.381Z,13.00
2019-05-23T19:17:39.995Z,12.80
2019-05-23T19:20:08.585Z,12.80
2019-05-23T19:22:37.382Z,12.60
2019-05-23T19:25:08.032Z,12.50
2019-05-23T19:27:36.891Z,12.40
2019-05-23T19:30:06.827Z,12.40
2019-05-23T19:32:35.296Z,12.30
2019-05-23T19:35:05.724Z,12.20
2019-05-23T19:37:34.239Z,12.00
2019-05-23T19:40:02.798Z,12.00
2019-05-23T19:42:31.758Z,11.80
2019-05-23T19:45:00.668Z,11.60
2019-05-23T19:47:29.403Z,11.60
2019-05-23T19:49:57.973Z,11.40
2019-05-23T19:52:26.713Z,11.40
2019-05-23T19:54:55.541Z,11.30
2019-05-23T19:57:24.713Z,11.20
2019-05-23T19:59:53.321Z,11.10
2019-05-23T20:02:26.540Z,10.90
2019-05-23T20:04:56.871Z,10.80
2019-05-23T20:07:25.753Z,10.70
2019-05-23T20:09:57.469Z,10.70
2019-05-23T20:12:27.798Z,10.60
2019-05-23T20:14:56.317Z,10.60
2019-05-23T20:17:26.336Z,10.40
2019-05-23T20:19:54.792Z,10.30
2019-05-23T20:22:25.092Z,10.20
2019-05-23T20:24:53.558Z,10.00
2019-05-23T20:27:23.547Z,10.00
2019-05-23T20:29:52.177Z,10.00
2019-05-23T20:32:20.824Z,9.90
2019-05-23T20:34:49.281Z,9.90
2019-05-23T20:37:20.182Z,9.80
2019-05-23T20:39:48.639Z,9.70
2019-05-23T20:42:17.081Z,9.50
2019-05-23T20:44:45.703Z,9.40
2019-05-23T20:47:14.504Z,9.40
2019-05-23T20:49:43.214Z,9.30
2019-05-23T20:52:12.519Z,9.30
2019-05-23T20:54:41.014Z,9.30
2019-05-23T20:57:09.515Z,9.20
2019-05-23T20:59:38.499Z,9.10
2019-05-23T21:02:07.192Z,9.10
2019-05-23T21:04:36.076Z,9.00
2019-05-23T21:07:04.563Z,8.90
2019-05-23T21:09:33.055Z,8.80
2019-05-23T21:12:03.152Z,8.80
2019-05-23T21:14:33.536Z,8.70
2019-05-23T21:17:02.193Z,8.60
2019-05-23T21:19:30.777Z,8.70
2019-05-23T21:21:59.378Z,8.60
2019-05-23T21:24:29.537Z,8.50
2019-05-23T21:27:00.807Z,8.40
2019-05-23T21:29:29.291Z,8.40
2019-05-23T21:31:59.320Z,8.30
2019-05-23T21:34:27.752Z,8.20
2019-05-23T21:36:56.192Z,8.20
2019-05-23T21:39:24.692Z,8.20
2019-05-23T21:41:53.509Z,8.10
2019-05-23T21:44:22.011Z,8.10
2019-05-23T21:46:50.820Z,8.00
2019-05-23T21:49:19.238Z,7.90
2019-05-23T21:51:47.682Z,7.80
2019-05-23T21:54:16.141Z,7.90
2019-05-23T21:56:44.675Z,7.80
2019-05-23T21:59:13.147Z,7.70
2019-05-23T22:01:45.884Z,7.70
2019-05-23T22:04:16.232Z,7.70
2019-05-23T22:06:46.493Z,7.60
2019-05-23T22:09:15.344Z,7.50
2019-05-23T22:11:43.869Z,7.50
2019-05-23T22:14:12.530Z,7.40
2019-05-23T22:16:41.002Z,7.40
2019-05-23T22:19:11.247Z,7.40
2019-05-23T22:21:39.839Z,7.30
2019-05-23T22:24:09.108Z,7.20
2019-05-23T22:26:37.763Z,7.20
2019-05-23T22:29:06.928Z,7.20
2019-05-23T22:31:36.000Z,7.20
2019-05-23T22:34:09.304Z,7.20
2019-05-23T22:36:37.798Z,7.10
2019-05-23T22:39:08.437Z,7.10
2019-05-23T22:41:37.552Z,7.00
2019-05-23T22:44:08.212Z,7.00
2019-05-23T22:46:36.670Z,7.00
2019-05-23T22:49:05.126Z,6.90
2019-05-23T22:51:33.678Z,6.80
2019-05-23T22:54:02.396Z,6.80
2019-05-23T22:56:30.908Z,6.70
2019-05-23T22:58:59.420Z,6.70
2019-05-23T23:01:29.780Z,6.70
2019-05-23T23:03:58.215Z,6.60
2019-05-23T23:06:27.212Z,6.60
2019-05-23T23:08:55.738Z,6.50
2019-05-23T23:11:24.226Z,6.60
2019-05-23T23:13:52.934Z,6.50
2019-05-23T23:16:21.363Z,6.50
2019-05-23T23:18:49.869Z,6.40
2019-05-23T23:21:18.292Z,6.40
2019-05-23T23:23:48.303Z,6.40
2019-05-23T23:26:16.799Z,6.30
2019-05-23T23:28:45.251Z,6.20
2019-05-23T23:31:13.750Z,6.20
2019-05-23T23:33:42.193Z,6.20
2019-05-23T23:36:10.688Z,6.10
2019-05-23T23:38:40.662Z,6.10
2019-05-23T23:41:09.388Z,6.10
2019-05-23T23:43:37.811Z,6.10
2019-05-23T23:46:24.515Z,6.10
2019-05-23T23:49:11.131Z,6.10
2019-05-23T23:51:57.758Z,6.00
2019-05-23T23:54:44.230Z,5.90
2019-05-23T23:57:31.215Z,5.90
